sensor_id;sensor_type;location;lat;lon;timestamp;P1;durP1;ratioP1;P2;durP2;ratioP2
22665;SDS011;11499;49.486;11.104;2023-04-03T00:01:28;1.40;;;1.30;;
22665;SDS011;11499;49.486;11.104;2023-04-03T00:03:54;2.23;;;1.37;;
22665;SDS011;11499;49.486;11.104;2023-04-03T00:06:20;1.67;;;1.40;;
22665;SDS011;11499;49.486;11.104;2023-04-03T00:08:46;2.53;;;1.50;;
22665;SDS011;11499;49.486;11.104;2023-04-03T00:11:12;1.97;;;1.47;;
22665;SDS011;11499;49.486;11.104;2023-04-03T00:13:38;1.60;;;1.40;;
22665;SDS011;11499;49.486;11.104;2023-04-03T00:16:04;1.80;;;1.57;;
22665;SDS011;11499;49.486;11.104;2023-04-03T00:18:31;1.40;;;1.30;;
22665;SDS011;11499;49.486;11.104;2023-04-03T00:23:52;1.80;;;1.70;;
22665;SDS011;11499;49.486;11.104;2023-04-03T00:26:18;3.47;;;1.60;;
22665;SDS011;11499;49.486;11.104;2023-04-03T00:28:43;1.87;;;1.60;;
22665;SDS011;11499;49.486;11.104;2023-04-03T00:31:09;1.60;;;1.50;;
22665;SDS011;11499;49.486;11.104;2023-04-03T00:33:35;1.37;;;1.27;;
22665;SDS011;11499;49.486;11.104;2023-04-03T00:36:04;2.57;;;1.50;;
22665;SDS011;11499;49.486;11.104;2023-04-03T00:38:31;1.80;;;1.50;;
22665;SDS011;11499;49.486;11.104;2023-04-03T00:40:57;3.93;;;1.53;;
22665;SDS011;11499;49.486;11.104;2023-04-03T00:43:23;1.47;;;1.33;;
22665;SDS011;11499;49.486;11.104;2023-04-03T00:45:52;2.80;;;1.63;;
22665;SDS011;11499;49.486;11.104;2023-04-03T00:51:27;1.63;;;1.43;;
22665;SDS011;11499;49.486;11.104;2023-04-03T00:53:54;2.00;;;1.57;;
22665;SDS011;11499;49.486;11.104;2023-04-03T00:56:25;2.10;;;1.73;;
22665;SDS011;11499;49.486;11.104;2023-04-03T00:59:04;1.40;;;1.30;;
22665;SDS011;11499;49.486;11.104;2023-04-03T01:01:35;4.27;;;1.53;;
22665;SDS011;11499;49.486;11.104;2023-04-03T01:04:02;1.70;;;1.50;;
22665;SDS011;11499;49.486;11.104;2023-04-03T01:06:32;1.53;;;1.40;;
22665;SDS011;11499;49.486;11.104;2023-04-03T01:09:01;1.73;;;1.40;;
22665;SDS011;11499;49.486;11.104;2023-04-03T01:11:26;2.00;;;1.80;;
22665;SDS011;11499;49.486;11.104;2023-04-03T01:13:52;1.50;;;1.40;;
22665;SDS011;11499;49.486;11.104;2023-04-03T01:19:00;1.60;;;1.50;;
22665;SDS011;11499;49.486;11.104;2023-04-03T01:21:45;1.60;;;1.37;;
22665;SDS011;11499;49.486;11.104;2023-04-03T01:24:37;1.50;;;1.37;;
22665;SDS011;11499;49.486;11.104;2023-04-03T01:27:05;1.53;;;1.40;;
22665;SDS011;11499;49.486;11.104;2023-04-03T01:29:33;1.37;;;1.27;;
22665;SDS011;11499;49.486;11.104;2023-04-03T01:32:00;1.30;;;1.20;;
22665;SDS011;11499;49.486;11.104;2023-04-03T01:34:27;2.23;;;1.50;;
22665;SDS011;11499;49.486;11.104;2023-04-03T01:36:54;3.30;;;1.33;;
22665;SDS011;11499;49.486;11.104;2023-04-03T01:39:20;2.17;;;1.53;;
22665;SDS011;11499;49.486;11.104;2023-04-03T01:41:46;2.23;;;1.37;;
22665;SDS011;11499;49.486;11.104;2023-04-03T01:46:30;1.83;;;1.50;;
22665;SDS011;11499;49.486;11.104;2023-04-03T01:48:56;1.60;;;1.50;;
22665;SDS011;11499;49.486;11.104;2023-04-03T01:51:21;1.73;;;1.50;;
22665;SDS011;11499;49.486;11.104;2023-04-03T01:53:47;1.63;;;1.40;;
22665;SDS011;11499;49.486;11.104;2023-04-03T01:56:12;2.07;;;1.70;;
22665;SDS011;11499;49.486;11.104;2023-04-03T01:58:38;1.80;;;1.50;;
22665;SDS011;11499;49.486;11.104;2023-04-03T02:01:03;1.60;;;1.50;;
22665;SDS011;11499;49.486;11.104;2023-04-03T02:03:29;2.57;;;1.60;;
22665;SDS011;11499;49.486;11.104;2023-04-03T02:05:55;2.87;;;1.80;;
22665;SDS011;11499;49.486;11.104;2023-04-03T02:08:21;1.60;;;1.50;;
22665;SDS011;11499;49.486;11.104;2023-04-03T02:13:31;3.50;;;1.80;;
22665;SDS011;11499;49.486;11.104;2023-04-03T02:15:56;1.57;;;1.47;;
22665;SDS011;11499;49.486;11.104;2023-04-03T02:18:22;1.80;;;1.63;;
22665;SDS011;11499;49.486;11.104;2023-04-03T02:20:47;2.53;;;1.77;;
22665;SDS011;11499;49.486;11.104;2023-04-03T02:23:13;3.43;;;1.60;;
22665;SDS011;11499;49.486;11.104;2023-04-03T02:25:38;2.73;;;1.40;;
22665;SDS011;11499;49.486;11.104;2023-04-03T02:28:04;2.93;;;1.37;;
22665;SDS011;11499;49.486;11.104;2023-04-03T02:30:30;2.50;;;1.60;;
22665;SDS011;11499;49.486;11.104;2023-04-03T02:32:55;1.97;;;1.77;;
22665;SDS011;11499;49.486;11.104;2023-04-03T02:35:21;2.77;;;1.80;;
22665;SDS011;11499;49.486;11.104;2023-04-03T02:40:45;2.37;;;1.70;;
22665;SDS011;11499;49.486;11.104;2023-04-03T02:43:11;1.80;;;1.50;;
22665;SDS011;11499;49.486;11.104;2023-04-03T02:45:36;3.03;;;1.70;;
22665;SDS011;11499;49.486;11.104;2023-04-03T02:48:01;2.27;;;1.50;;
22665;SDS011;11499;49.486;11.104;2023-04-03T02:50:27;2.67;;;1.70;;
22665;SDS011;11499;49.486;11.104;2023-04-03T02:52:53;2.27;;;1.50;;
22665;SDS011;11499;49.486;11.104;2023-04-03T02:55:18;2.40;;;1.60;;
22665;SDS011;11499;49.486;11.104;2023-04-03T02:57:44;2.40;;;1.73;;
22665;SDS011;11499;49.486;11.104;2023-04-03T03:00:09;1.83;;;1.70;;
22665;SDS011;11499;49.486;11.104;2023-04-03T03:02:35;4.03;;;1.87;;
22665;SDS011;11499;49.486;11.104;2023-04-03T03:08:02;4.47;;;1.80;;
22665;SDS011;11499;49.486;11.104;2023-04-03T03:10:28;2.73;;;1.57;;
22665;SDS011;11499;49.486;11.104;2023-04-03T03:12:53;4.00;;;2.03;;
22665;SDS011;11499;49.486;11.104;2023-04-03T03:15:19;3.10;;;1.90;;
22665;SDS011;11499;49.486;11.104;2023-04-03T03:17:44;1.97;;;1.60;;
22665;SDS011;11499;49.486;11.104;2023-04-03T03:20:10;2.30;;;1.63;;
22665;SDS011;11499;49.486;11.104;2023-04-03T03:22:37;4.03;;;1.90;;
22665;SDS011;11499;49.486;11.104;2023-04-03T03:25:02;5.00;;;2.23;;
22665;SDS011;11499;49.486;11.104;2023-04-03T03:27:28;4.27;;;2.13;;
22665;SDS011;11499;49.486;11.104;2023-04-03T03:29:54;2.63;;;2.00;;
22665;SDS011;11499;49.486;11.104;2023-04-03T03:35:08;2.67;;;1.90;;
22665;SDS011;11499;49.486;11.104;2023-04-03T03:37:33;2.00;;;1.70;;
22665;SDS011;11499;49.486;11.104;2023-04-03T03:39:59;4.30;;;1.97;;
22665;SDS011;11499;49.486;11.104;2023-04-03T03:42:25;4.20;;;2.23;;
22665;SDS011;11499;49.486;11.104;2023-04-03T03:44:50;3.60;;;2.37;;
22665;SDS011;11499;49.486;11.104;2023-04-03T03:47:16;3.90;;;2.07;;
22665;SDS011;11499;49.486;11.104;2023-04-03T03:49:42;3.20;;;2.00;;
22665;SDS011;11499;49.486;11.104;2023-04-03T03:52:07;5.03;;;2.17;;
22665;SDS011;11499;49.486;11.104;2023-04-03T03:54:35;3.50;;;2.10;;
22665;SDS011;11499;49.486;11.104;2023-04-03T03:57:01;5.10;;;2.10;;
22665;SDS011;11499;49.486;11.104;2023-04-03T04:02:08;3.20;;;2.40;;
22665;SDS011;11499;49.486;11.104;2023-04-03T04:04:34;4.43;;;2.30;;
22665;SDS011;11499;49.486;11.104;2023-04-03T04:06:59;4.00;;;2.20;;
22665;SDS011;11499;49.486;11.104;2023-04-03T04:09:25;3.20;;;1.87;;
22665;SDS011;11499;49.486;11.104;2023-04-03T04:11:51;3.10;;;2.37;;
22665;SDS011;11499;49.486;11.104;2023-04-03T04:14:17;4.53;;;2.63;;
22665;SDS011;11499;49.486;11.104;2023-04-03T04:16:42;3.77;;;2.10;;
22665;SDS011;11499;49.486;11.104;2023-04-03T04:19:08;2.67;;;1.97;;
22665;SDS011;11499;49.486;11.104;2023-04-03T04:21:33;2.93;;;2.20;;
22665;SDS011;11499;49.486;11.104;2023-04-03T04:24:00;2.60;;;2.10;;
22665;SDS011;11499;49.486;11.104;2023-04-03T04:29:27;2.50;;;1.97;;
22665;SDS011;11499;49.486;11.104;2023-04-03T04:31:53;2.60;;;2.40;;
22665;SDS011;11499;49.486;11.104;2023-04-03T04:34:18;2.83;;;2.20;;
22665;SDS011;11499;49.486;11.104;2023-04-03T04:36:44;2.37;;;2.17;;
22665;SDS011;11499;49.486;11.104;2023-04-03T04:39:09;3.87;;;2.60;;
22665;SDS011;11499;49.486;11.104;2023-04-03T04:41:35;3.20;;;2.10;;
22665;SDS011;11499;49.486;11.104;2023-04-03T04:44:00;3.33;;;2.47;;
22665;SDS011;11499;49.486;11.104;2023-04-03T04:46:26;2.60;;;2.33;;
22665;SDS011;11499;49.486;11.104;2023-04-03T04:48:51;5.10;;;2.53;;
22665;SDS011;11499;49.486;11.104;2023-04-03T04:51:17;6.27;;;2.47;;
22665;SDS011;11499;49.486;11.104;2023-04-03T04:56:42;3.43;;;2.80;;
22665;SDS011;11499;49.486;11.104;2023-04-03T04:59:07;5.13;;;2.87;;
22665;SDS011;11499;49.486;11.104;2023-04-03T05:01:35;6.73;;;2.87;;
22665;SDS011;11499;49.486;11.104;2023-04-03T05:04:01;5.27;;;2.40;;
22665;SDS011;11499;49.486;11.104;2023-04-03T05:06:26;4.77;;;2.73;;
22665;SDS011;11499;49.486;11.104;2023-04-03T05:08:52;3.00;;;2.70;;
22665;SDS011;11499;49.486;11.104;2023-04-03T05:11:17;6.17;;;3.20;;
22665;SDS011;11499;49.486;11.104;2023-04-03T05:13:43;3.00;;;2.70;;
22665;SDS011;11499;49.486;11.104;2023-04-03T05:16:08;5.47;;;2.70;;
22665;SDS011;11499;49.486;11.104;2023-04-03T05:18:34;3.80;;;3.10;;
22665;SDS011;11499;49.486;11.104;2023-04-03T05:23:59;2.90;;;2.20;;
22665;SDS011;11499;49.486;11.104;2023-04-03T05:26:27;2.93;;;2.17;;
22665;SDS011;11499;49.486;11.104;2023-04-03T05:28:55;5.13;;;2.37;;
22665;SDS011;11499;49.486;11.104;2023-04-03T05:31:21;7.60;;;2.97;;
22665;SDS011;11499;49.486;11.104;2023-04-03T05:33:47;5.17;;;2.70;;
22665;SDS011;11499;49.486;11.104;2023-04-03T05:36:12;3.80;;;2.53;;
22665;SDS011;11499;49.486;11.104;2023-04-03T05:38:38;6.63;;;2.50;;
22665;SDS011;11499;49.486;11.104;2023-04-03T05:41:04;3.17;;;2.10;;
22665;SDS011;11499;49.486;11.104;2023-04-03T05:43:30;3.63;;;2.30;;
22665;SDS011;11499;49.486;11.104;2023-04-03T05:49:14;4.43;;;2.40;;
22665;SDS011;11499;49.486;11.104;2023-04-03T05:51:40;3.37;;;2.23;;
22665;SDS011;11499;49.486;11.104;2023-04-03T05:54:08;4.97;;;2.30;;
22665;SDS011;11499;49.486;11.104;2023-04-03T05:56:41;6.47;;;2.87;;
22665;SDS011;11499;49.486;11.104;2023-04-03T05:59:06;4.50;;;2.30;;
22665;SDS011;11499;49.486;11.104;2023-04-03T06:01:32;3.07;;;1.80;;
22665;SDS011;11499;49.486;11.104;2023-04-03T06:03:59;3.43;;;2.20;;
22665;SDS011;11499;49.486;11.104;2023-04-03T06:06:24;3.23;;;2.17;;
22665;SDS011;11499;49.486;11.104;2023-04-03T06:08:50;4.97;;;2.73;;
22665;SDS011;11499;49.486;11.104;2023-04-03T06:11:16;5.23;;;2.30;;
22665;SDS011;11499;49.486;11.104;2023-04-03T06:16:25;2.67;;;2.00;;
22665;SDS011;11499;49.486;11.104;2023-04-03T06:18:51;3.57;;;2.00;;
22665;SDS011;11499;49.486;11.104;2023-04-03T06:21:16;3.53;;;2.07;;
22665;SDS011;11499;49.486;11.104;2023-04-03T06:23:41;4.93;;;2.30;;
22665;SDS011;11499;49.486;11.104;2023-04-03T06:26:07;3.73;;;2.23;;
22665;SDS011;11499;49.486;11.104;2023-04-03T06:28:33;4.87;;;2.23;;
22665;SDS011;11499;49.486;11.104;2023-04-03T06:30:58;3.70;;;2.33;;
22665;SDS011;11499;49.486;11.104;2023-04-03T06:33:24;3.77;;;1.77;;
22665;SDS011;11499;49.486;11.104;2023-04-03T06:35:54;7.50;;;2.20;;
22665;SDS011;11499;49.486;11.104;2023-04-03T06:38:21;4.27;;;2.00;;
22665;SDS011;11499;49.486;11.104;2023-04-03T06:40:47;3.50;;;2.20;;
22665;SDS011;11499;49.486;11.104;2023-04-03T06:43:12;2.83;;;2.20;;
22665;SDS011;11499;49.486;11.104;2023-04-03T06:47:40;2.50;;;2.03;;
22665;SDS011;11499;49.486;11.104;2023-04-03T06:50:06;3.93;;;2.60;;
22665;SDS011;11499;49.486;11.104;2023-04-03T06:52:32;4.93;;;2.33;;
22665;SDS011;11499;49.486;11.104;2023-04-03T06:54:57;3.97;;;2.30;;
22665;SDS011;11499;49.486;11.104;2023-04-03T06:57:24;2.53;;;2.20;;
22665;SDS011;11499;49.486;11.104;2023-04-03T06:59:50;6.23;;;2.40;;
22665;SDS011;11499;49.486;11.104;2023-04-03T07:02:16;5.10;;;2.47;;
22665;SDS011;11499;49.486;11.104;2023-04-03T07:04:42;2.53;;;2.00;;
22665;SDS011;11499;49.486;11.104;2023-04-03T07:07:07;4.97;;;2.67;;
22665;SDS011;11499;49.486;11.104;2023-04-03T07:09:33;2.47;;;2.20;;
22665;SDS011;11499;49.486;11.104;2023-04-03T07:11:59;5.13;;;2.50;;
22665;SDS011;11499;49.486;11.104;2023-04-03T07:14:24;3.33;;;2.03;;
22665;SDS011;11499;49.486;11.104;2023-04-03T07:19:11;3.53;;;2.07;;
22665;SDS011;11499;49.486;11.104;2023-04-03T07:21:36;2.80;;;1.90;;
22665;SDS011;11499;49.486;11.104;2023-04-03T07:24:02;3.50;;;2.57;;
22665;SDS011;11499;49.486;11.104;2023-04-03T07:26:27;3.73;;;2.37;;
22665;SDS011;11499;49.486;11.104;2023-04-03T07:28:53;2.60;;;1.90;;
22665;SDS011;11499;49.486;11.104;2023-04-03T07:31:18;3.33;;;2.20;;
22665;SDS011;11499;49.486;11.104;2023-04-03T07:33:44;4.00;;;2.30;;
22665;SDS011;11499;49.486;11.104;2023-04-03T07:36:11;3.60;;;2.20;;
22665;SDS011;11499;49.486;11.104;2023-04-03T07:38:40;2.90;;;2.50;;
22665;SDS011;11499;49.486;11.104;2023-04-03T07:41:06;3.13;;;2.23;;
22665;SDS011;11499;49.486;11.104;2023-04-03T07:46:26;2.77;;;2.10;;
22665;SDS011;11499;49.486;11.104;2023-04-03T07:48:52;5.30;;;2.33;;
22665;SDS011;11499;49.486;11.104;2023-04-03T07:51:18;2.40;;;2.03;;
22665;SDS011;11499;49.486;11.104;2023-04-03T07:53:44;4.17;;;2.20;;
22665;SDS011;11499;49.486;11.104;2023-04-03T07:56:10;3.70;;;2.30;;
22665;SDS011;11499;49.486;11.104;2023-04-03T07:58:35;5.53;;;2.67;;
22665;SDS011;11499;49.486;11.104;2023-04-03T08:01:01;3.63;;;2.10;;
22665;SDS011;11499;49.486;11.104;2023-04-03T08:03:27;3.00;;;2.30;;
22665;SDS011;11499;49.486;11.104;2023-04-03T08:05:53;3.43;;;2.37;;
22665;SDS011;11499;49.486;11.104;2023-04-03T08:08:20;4.50;;;2.43;;
22665;SDS011;11499;49.486;11.104;2023-04-03T08:13:23;4.13;;;2.27;;
22665;SDS011;11499;49.486;11.104;2023-04-03T08:15:49;2.90;;;2.20;;
22665;SDS011;11499;49.486;11.104;2023-04-03T08:18:15;2.80;;;2.20;;
22665;SDS011;11499;49.486;11.104;2023-04-03T08:20:42;4.33;;;1.90;;
22665;SDS011;11499;49.486;11.104;2023-04-03T08:23:08;3.53;;;2.13;;
22665;SDS011;11499;49.486;11.104;2023-04-03T08:25:34;2.40;;;1.70;;
22665;SDS011;11499;49.486;11.104;2023-04-03T08:28:06;6.50;;;2.43;;
22665;SDS011;11499;49.486;11.104;2023-04-03T08:30:34;2.23;;;1.83;;
22665;SDS011;11499;49.486;11.104;2023-04-03T08:33:01;2.93;;;2.10;;
22665;SDS011;11499;49.486;11.104;2023-04-03T08:35:27;2.30;;;2.00;;
22665;SDS011;11499;49.486;11.104;2023-04-03T08:40:34;5.50;;;2.10;;
22665;SDS011;11499;49.486;11.104;2023-04-03T08:43:05;2.63;;;1.60;;
22665;SDS011;11499;49.486;11.104;2023-04-03T08:45:52;4.00;;;2.00;;
22665;SDS011;11499;49.486;11.104;2023-04-03T08:48:21;2.33;;;1.83;;
22665;SDS011;11499;49.486;11.104;2023-04-03T08:50:57;2.80;;;1.57;;
22665;SDS011;11499;49.486;11.104;2023-04-03T08:53:26;2.37;;;1.53;;
22665;SDS011;11499;49.486;11.104;2023-04-03T08:55:57;5.93;;;1.70;;
22665;SDS011;11499;49.486;11.104;2023-04-03T08:58:26;2.60;;;1.57;;
22665;SDS011;11499;49.486;11.104;2023-04-03T09:03:32;2.63;;;1.77;;
22665;SDS011;11499;49.486;11.104;2023-04-03T09:08:21;2.87;;;1.90;;
22665;SDS011;11499;49.486;11.104;2023-04-03T09:11:11;2.50;;;1.60;;
22665;SDS011;11499;49.486;11.104;2023-04-03T09:16:43;3.07;;;1.60;;
22665;SDS011;11499;49.486;11.104;2023-04-03T09:21:56;2.30;;;1.47;;
22665;SDS011;11499;49.486;11.104;2023-04-03T09:24:22;1.73;;;1.30;;
22665;SDS011;11499;49.486;11.104;2023-04-03T09:26:59;1.90;;;1.60;;
22665;SDS011;11499;49.486;11.104;2023-04-03T09:29:29;2.83;;;1.53;;
22665;SDS011;11499;49.486;11.104;2023-04-03T09:31:56;2.70;;;1.60;;
22665;SDS011;11499;49.486;11.104;2023-04-03T09:35:52;3.00;;;1.60;;
22665;SDS011;11499;49.486;11.104;2023-04-03T09:38:20;2.70;;;2.07;;
22665;SDS011;11499;49.486;11.104;2023-04-03T09:40:50;2.90;;;1.60;;
22665;SDS011;11499;49.486;11.104;2023-04-03T09:43:30;3.00;;;1.70;;
22665;SDS011;11499;49.486;11.104;2023-04-03T09:46:16;2.00;;;1.80;;
22665;SDS011;11499;49.486;11.104;2023-04-03T09:48:51;4.23;;;2.10;;
22665;SDS011;11499;49.486;11.104;2023-04-03T09:51:28;4.13;;;1.70;;
22665;SDS011;11499;49.486;11.104;2023-04-03T09:53:54;3.87;;;1.47;;
22665;SDS011;11499;49.486;11.104;2023-04-03T09:56:25;1.97;;;1.77;;
22665;SDS011;11499;49.486;11.104;2023-04-03T10:03:33;3.97;;;1.77;;
22665;SDS011;11499;49.486;11.104;2023-04-03T10:06:00;1.90;;;1.60;;
22665;SDS011;11499;49.486;11.104;2023-04-03T10:08:31;3.30;;;2.30;;
22665;SDS011;11499;49.486;11.104;2023-04-03T10:11:06;4.63;;;2.03;;
22665;SDS011;11499;49.486;11.104;2023-04-03T10:13:34;2.47;;;1.60;;
22665;SDS011;11499;49.486;11.104;2023-04-03T10:18:33;2.30;;;1.40;;
22665;SDS011;11499;49.486;11.104;2023-04-03T10:38:15;1.90;;;1.50;;
22665;SDS011;11499;49.486;11.104;2023-04-03T10:46:02;3.10;;;2.37;;
22665;SDS011;11499;49.486;11.104;2023-04-03T11:01:44;3.70;;;1.70;;
22665;SDS011;11499;49.486;11.104;2023-04-03T11:04:13;2.03;;;1.47;;
22665;SDS011;11499;49.486;11.104;2023-04-03T11:06:44;2.20;;;1.80;;
22665;SDS011;11499;49.486;11.104;2023-04-03T11:11:48;2.10;;;1.60;;
22665;SDS011;11499;49.486;11.104;2023-04-03T11:14:32;3.17;;;1.67;;
22665;SDS011;11499;49.486;11.104;2023-04-03T11:17:05;2.37;;;1.57;;
22665;SDS011;11499;49.486;11.104;2023-04-03T11:22:42;2.67;;;1.50;;
22665;SDS011;11499;49.486;11.104;2023-04-03T11:25:29;2.07;;;1.43;;
22665;SDS011;11499;49.486;11.104;2023-04-03T11:27:59;2.57;;;1.60;;
22665;SDS011;11499;49.486;11.104;2023-04-03T11:36:03;2.37;;;1.30;;
22665;SDS011;11499;49.486;11.104;2023-04-03T11:38:40;3.40;;;1.60;;
22665;SDS011;11499;49.486;11.104;2023-04-03T11:41:09;3.63;;;1.80;;
22665;SDS011;11499;49.486;11.104;2023-04-03T11:43:41;3.80;;;1.70;;
22665;SDS011;11499;49.486;11.104;2023-04-03T11:46:49;3.73;;;1.80;;
22665;SDS011;11499;49.486;11.104;2023-04-03T12:05:52;2.60;;;1.80;;
22665;SDS011;11499;49.486;11.104;2023-04-03T12:11:32;2.17;;;1.53;;
22665;SDS011;11499;49.486;11.104;2023-04-03T12:37:20;2.03;;;1.40;;
22665;SDS011;11499;49.486;11.104;2023-04-03T12:45:40;3.13;;;1.40;;
22665;SDS011;11499;49.486;11.104;2023-04-03T12:48:08;2.10;;;1.60;;
22665;SDS011;11499;49.486;11.104;2023-04-03T12:50:40;2.27;;;1.33;;
22665;SDS011;11499;49.486;11.104;2023-04-03T12:53:11;2.23;;;1.40;;
22665;SDS011;11499;49.486;11.104;2023-04-03T12:55:39;2.20;;;1.70;;
22665;SDS011;11499;49.486;11.104;2023-04-03T12:58:24;2.67;;;1.47;;
22665;SDS011;11499;49.486;11.104;2023-04-03T13:01:11;1.97;;;1.40;;
22665;SDS011;11499;49.486;11.104;2023-04-03T13:03:40;1.90;;;1.40;;
22665;SDS011;11499;49.486;11.104;2023-04-03T13:06:14;2.87;;;1.63;;
22665;SDS011;11499;49.486;11.104;2023-04-03T13:08:51;1.77;;;1.40;;
22665;SDS011;11499;49.486;11.104;2023-04-03T13:15:21;2.43;;;1.57;;
22665;SDS011;11499;49.486;11.104;2023-04-03T13:17:50;2.80;;;1.50;;
22665;SDS011;11499;49.486;11.104;2023-04-03T13:20:19;1.50;;;1.40;;
22665;SDS011;11499;49.486;11.104;2023-04-03T13:22:52;3.40;;;1.50;;
22665;SDS011;11499;49.486;11.104;2023-04-03T13:25:31;1.63;;;1.30;;
22665;SDS011;11499;49.486;11.104;2023-04-03T13:27:59;3.77;;;1.30;;
22665;SDS011;11499;49.486;11.104;2023-04-03T13:30:31;1.90;;;1.60;;
22665;SDS011;11499;49.486;11.104;2023-04-03T13:32:58;2.70;;;1.43;;
22665;SDS011;11499;49.486;11.104;2023-04-03T13:35:36;4.97;;;2.10;;
22665;SDS011;11499;49.486;11.104;2023-04-03T13:40:47;2.47;;;1.67;;
22665;SDS011;11499;49.486;11.104;2023-04-03T13:43:19;3.13;;;1.73;;
22665;SDS011;11499;49.486;11.104;2023-04-03T13:45:53;2.70;;;1.60;;
22665;SDS011;11499;49.486;11.104;2023-04-03T13:48:25;1.93;;;1.50;;
22665;SDS011;11499;49.486;11.104;2023-04-03T13:50:57;2.20;;;1.50;;
22665;SDS011;11499;49.486;11.104;2023-04-03T13:53:28;2.57;;;1.70;;
22665;SDS011;11499;49.486;11.104;2023-04-03T13:55:57;2.07;;;1.30;;
22665;SDS011;11499;49.486;11.104;2023-04-03T13:58:24;1.93;;;1.30;;
22665;SDS011;11499;49.486;11.104;2023-04-03T14:03:26;3.67;;;1.37;;
22665;SDS011;11499;49.486;11.104;2023-04-03T14:08:31;2.17;;;1.30;;
22665;SDS011;11499;49.486;11.104;2023-04-03T14:10:57;1.90;;;1.40;;
22665;SDS011;11499;49.486;11.104;2023-04-03T14:13:23;4.53;;;1.40;;
22665;SDS011;11499;49.486;11.104;2023-04-03T14:15:48;1.83;;;1.40;;
22665;SDS011;11499;49.486;11.104;2023-04-03T14:18:17;2.47;;;1.47;;
22665;SDS011;11499;49.486;11.104;2023-04-03T14:20:44;2.57;;;1.57;;
22665;SDS011;11499;49.486;11.104;2023-04-03T14:23:10;2.43;;;1.40;;
22665;SDS011;11499;49.486;11.104;2023-04-03T14:25:36;2.87;;;1.50;;
22665;SDS011;11499;49.486;11.104;2023-04-03T14:28:06;1.37;;;1.20;;
22665;SDS011;11499;49.486;11.104;2023-04-03T14:33:45;2.10;;;1.43;;
22665;SDS011;11499;49.486;11.104;2023-04-03T14:36:15;1.67;;;1.37;;
22665;SDS011;11499;49.486;11.104;2023-04-03T14:38:43;2.40;;;1.40;;
22665;SDS011;11499;49.486;11.104;2023-04-03T14:41:10;2.13;;;1.40;;
22665;SDS011;11499;49.486;11.104;2023-04-03T14:43:38;1.57;;;1.27;;
22665;SDS011;11499;49.486;11.104;2023-04-03T14:46:04;1.87;;;1.43;;
22665;SDS011;11499;49.486;11.104;2023-04-03T14:48:35;2.23;;;1.57;;
22665;SDS011;11499;49.486;11.104;2023-04-03T14:51:00;2.97;;;1.50;;
22665;SDS011;11499;49.486;11.104;2023-04-03T14:53:26;2.33;;;1.80;;
22665;SDS011;11499;49.486;11.104;2023-04-03T14:55:54;3.70;;;1.73;;
22665;SDS011;11499;49.486;11.104;2023-04-03T15:00:14;2.13;;;1.37;;
22665;SDS011;11499;49.486;11.104;2023-04-03T15:02:42;1.90;;;1.20;;
22665;SDS011;11499;49.486;11.104;2023-04-03T15:05:08;2.87;;;1.40;;
22665;SDS011;11499;49.486;11.104;2023-04-03T15:07:36;2.23;;;1.47;;
22665;SDS011;11499;49.486;11.104;2023-04-03T15:10:20;2.33;;;1.60;;
22665;SDS011;11499;49.486;11.104;2023-04-03T15:12:54;1.93;;;1.40;;
22665;SDS011;11499;49.486;11.104;2023-04-03T15:15:21;2.43;;;1.30;;
22665;SDS011;11499;49.486;11.104;2023-04-03T15:17:50;2.77;;;1.60;;
22665;SDS011;11499;49.486;11.104;2023-04-03T15:20:20;2.47;;;1.40;;
22665;SDS011;11499;49.486;11.104;2023-04-03T15:22:48;1.87;;;1.40;;
22665;SDS011;11499;49.486;11.104;2023-04-03T15:25:14;2.30;;;1.33;;
22665;SDS011;11499;49.486;11.104;2023-04-03T15:30:36;3.90;;;2.87;;
22665;SDS011;11499;49.486;11.104;2023-04-03T15:33:05;11.43;;;7.70;;
22665;SDS011;11499;49.486;11.104;2023-04-03T15:35:30;10.97;;;7.63;;
22665;SDS011;11499;49.486;11.104;2023-04-03T15:37:56;1.43;;;1.30;;
22665;SDS011;11499;49.486;11.104;2023-04-03T15:40:21;4.63;;;2.10;;
22665;SDS011;11499;49.486;11.104;2023-04-03T15:42:47;2.63;;;1.60;;
22665;SDS011;11499;49.486;11.104;2023-04-03T15:45:12;2.17;;;1.50;;
22665;SDS011;11499;49.486;11.104;2023-04-03T15:47:38;2.90;;;1.60;;
22665;SDS011;11499;49.486;11.104;2023-04-03T15:50:04;2.83;;;1.83;;
22665;SDS011;11499;49.486;11.104;2023-04-03T15:52:31;1.50;;;1.27;;
22665;SDS011;11499;49.486;11.104;2023-04-03T15:57:38;2.20;;;1.37;;
22665;SDS011;11499;49.486;11.104;2023-04-03T16:00:03;1.77;;;1.57;;
22665;SDS011;11499;49.486;11.104;2023-04-03T16:02:31;1.37;;;1.17;;
22665;SDS011;11499;49.486;11.104;2023-04-03T16:04:58;2.20;;;1.70;;
22665;SDS011;11499;49.486;11.104;2023-04-03T16:07:24;2.77;;;1.60;;
22665;SDS011;11499;49.486;11.104;2023-04-03T16:09:49;4.83;;;1.70;;
22665;SDS011;11499;49.486;11.104;2023-04-03T16:12:15;2.80;;;1.73;;
22665;SDS011;11499;49.486;11.104;2023-04-03T16:14:40;3.00;;;1.13;;
22665;SDS011;11499;49.486;11.104;2023-04-03T16:17:06;2.87;;;1.83;;
22665;SDS011;11499;49.486;11.104;2023-04-03T16:19:31;2.50;;;1.57;;
22665;SDS011;11499;49.486;11.104;2023-04-03T16:24:39;2.07;;;1.57;;
22665;SDS011;11499;49.486;11.104;2023-04-03T16:27:05;1.50;;;1.23;;
22665;SDS011;11499;49.486;11.104;2023-04-03T16:29:30;2.73;;;1.80;;
22665;SDS011;11499;49.486;11.104;2023-04-03T16:31:56;1.57;;;1.40;;
22665;SDS011;11499;49.486;11.104;2023-04-03T16:34:23;1.90;;;1.43;;
22665;SDS011;11499;49.486;11.104;2023-04-03T16:36:50;1.70;;;1.30;;
22665;SDS011;11499;49.486;11.104;2023-04-03T16:39:17;3.13;;;1.43;;
22665;SDS011;11499;49.486;11.104;2023-04-03T16:41:43;2.03;;;1.30;;
22665;SDS011;11499;49.486;11.104;2023-04-03T16:44:08;3.50;;;1.60;;
22665;SDS011;11499;49.486;11.104;2023-04-03T16:46:34;2.30;;;1.27;;
22665;SDS011;11499;49.486;11.104;2023-04-03T16:49:00;1.67;;;1.30;;
22665;SDS011;11499;49.486;11.104;2023-04-03T16:51:25;2.83;;;1.40;;
22665;SDS011;11499;49.486;11.104;2023-04-03T16:55:56;2.30;;;1.43;;
22665;SDS011;11499;49.486;11.104;2023-04-03T16:58:22;2.83;;;1.47;;
22665;SDS011;11499;49.486;11.104;2023-04-03T17:00:48;2.30;;;1.27;;
22665;SDS011;11499;49.486;11.104;2023-04-03T17:03:13;1.57;;;1.10;;
22665;SDS011;11499;49.486;11.104;2023-04-03T17:05:39;4.00;;;1.53;;
22665;SDS011;11499;49.486;11.104;2023-04-03T17:08:04;1.87;;;1.27;;
22665;SDS011;11499;49.486;11.104;2023-04-03T17:10:30;1.47;;;1.20;;
22665;SDS011;11499;49.486;11.104;2023-04-03T17:12:56;1.80;;;1.40;;
22665;SDS011;11499;49.486;11.104;2023-04-03T17:15:21;3.40;;;1.47;;
22665;SDS011;11499;49.486;11.104;2023-04-03T17:17:48;1.97;;;1.37;;
22665;SDS011;11499;49.486;11.104;2023-04-03T17:23:04;2.70;;;1.27;;
22665;SDS011;11499;49.486;11.104;2023-04-03T17:25:29;1.70;;;1.30;;
22665;SDS011;11499;49.486;11.104;2023-04-03T17:27:55;2.87;;;1.40;;
22665;SDS011;11499;49.486;11.104;2023-04-03T17:30:21;1.73;;;1.20;;
22665;SDS011;11499;49.486;11.104;2023-04-03T17:32:46;2.53;;;1.30;;
22665;SDS011;11499;49.486;11.104;2023-04-03T17:35:12;1.60;;;1.27;;
22665;SDS011;11499;49.486;11.104;2023-04-03T17:37:37;1.57;;;1.30;;
22665;SDS011;11499;49.486;11.104;2023-04-03T17:40:03;3.17;;;1.30;;
22665;SDS011;11499;49.486;11.104;2023-04-03T17:42:29;2.13;;;1.40;;
22665;SDS011;11499;49.486;11.104;2023-04-03T17:44:56;3.17;;;1.40;;
22665;SDS011;11499;49.486;11.104;2023-04-03T17:50:18;2.53;;;1.50;;
22665;SDS011;11499;49.486;11.104;2023-04-03T17:52:44;1.57;;;1.10;;
22665;SDS011;11499;49.486;11.104;2023-04-03T17:55:10;2.40;;;1.40;;
22665;SDS011;11499;49.486;11.104;2023-04-03T17:57:37;2.60;;;1.50;;